SMRA30 UAOL 120300
AAXX 12031

=
35120 12998 30303 10215 20139 30051 40192 52010 69942 81045 333   20209 30019 555   53012 7994/=
35127 12998 40204 10218 20153 30018 40187 52007 60002 84070 333   20198 30019 555   53007 7000/=
35138 12997 60105 10203 20144 39860 40189 51011 60002 80030 333   20184 30018 555   53007 7000/=34273 62997 40000 10196 20154 30158 40216 53008 60002 84030 333   20180 30018 555   53007 7000/


SMUS30 KWBC 120300
AAXX 12034